Time;durP1;ratioP1;P1;durP2;ratioP2;P2;SDS_P1;SDS_P2;PMS_P1;PMS_P2;Temp;Humidity;BMP_temperature;BMP_pressure;BME280_temperature;BME280_humidity;BME280_pressure;Samples;Min_cycle;Max_cycle;Signal;HPM_P1;HPM_P2
2022/10/21 00:00:21;;;;;;;10.68;5.90;;;13.40;99.90;;;;;;10512493;28;20020;-66
2022/10/21 00:05:22;;;;;;;9.68;5.50;;;13.40;99.90;;;;;;10507911;28;20086;-66
2022/10/21 00:10:23;;;;;;;9.95;5.45;;;13.40;99.90;;;;;;10488724;28;20020;-65
2022/10/21 00:15:23;;;;;;;8.45;5.45;;;13.50;99.90;;;;;;10509041;28;20371;-65
2022/10/21 00:20:24;;;;;;;9.30;5.43;;;13.40;99.90;;;;;;10516492;28;20066;-65
2022/10/21 00:25:25;;;;;;;9.02;5.18;;;13.40;99.90;;;;;;10487375;28;273711;-66
2022/10/21 00:30:26;;;;;;;10.07;5.40;;;13.40;99.90;;;;;;10515404;28;20504;-66
2022/10/21 00:35:26;;;;;;;11.93;5.75;;;13.40;99.90;;;;;;10497508;28;20496;-66
2022/10/21 00:40:27;;;;;;;9.82;5.70;;;13.40;99.90;;;;;;10519316;28;20105;-65
2022/10/21 00:45:29;;;;;;;7.78;5.38;;;13.40;99.90;;;;;;10514563;28;20036;-66
2022/10/21 00:50:42;;;;;;;9.30;5.35;;;13.40;99.90;;;;;;10501900;28;20039;-66
2022/10/21 00:55:52;;;;;;;7.97;4.97;;;13.40;99.90;;;;;;10512905;28;20028;-66
2022/10/21 01:00:56;;;;;;;8.85;5.20;;;13.40;99.90;;;;;;10517517;28;20047;-66
2022/10/21 01:05:59;;;;;;;9.35;5.75;;;13.40;99.90;;;;;;10512273;28;20038;-66
2022/10/21 01:11:00;;;;;;;13.70;6.18;;;13.40;99.90;;;;;;10515338;28;20021;-66
2022/10/21 01:16:10;;;;;;;8.68;5.22;;;13.50;99.90;;;;;;10513704;28;20039;-65
2022/10/21 01:21:19;;;;;;;9.15;5.82;;;13.40;99.90;;;;;;10515212;28;20020;-66
2022/10/21 01:26:55;;;;;;;9.40;5.43;;;13.40;99.90;;;;;;10510707;28;20059;-66
2022/10/21 01:32:22;;;;;;;9.88;5.78;;;13.40;99.90;;;;;;10469818;28;20471;-66
2022/10/21 01:37:31;;;;;;;9.32;5.40;;;13.40;99.90;;;;;;10518500;28;20048;-66
2022/10/21 01:42:52;;;;;;;7.30;5.47;;;13.40;99.90;;;;;;10515678;28;20024;-66
2022/10/21 01:47:57;;;;;;;9.93;5.32;;;13.40;99.90;;;;;;10512320;28;20043;-66
2022/10/21 01:53:05;;;;;;;10.43;5.28;;;13.40;99.90;;;;;;10515866;28;20377;-66
2022/10/21 01:58:13;;;;;;;7.63;4.83;;;13.50;99.90;;;;;;10518994;28;20032;-66
2022/10/21 02:03:19;;;;;;;7.70;5.30;;;13.40;99.90;;;;;;10519850;28;20019;-66
2022/10/21 02:08:20;;;;;;;9.68;5.60;;;13.40;99.90;;;;;;10502130;28;20283;-66
2022/10/21 02:13:28;;;;;;;8.32;5.90;;;13.50;99.90;;;;;;10521487;28;20025;-66
2022/10/21 02:18:29;;;;;;;12.10;5.73;;;13.50;99.90;;;;;;10520657;28;20027;-66
2022/10/21 02:23:38;;;;;;;7.47;5.35;;;13.50;99.90;;;;;;10523493;28;20040;-65
2022/10/21 02:28:39;;;;;;;10.23;5.60;;;13.50;99.90;;;;;;10522421;28;20549;-66
2022/10/21 02:34:04;;;;;;;9.30;5.75;;;13.50;99.90;;;;;;10524080;28;20073;-66
2022/10/21 02:39:31;;;;;;;8.75;5.60;;;13.50;99.90;;;;;;10522151;28;20108;-65
2022/10/21 02:44:33;;;;;;;8.20;5.30;;;13.50;99.90;;;;;;10514824;28;20020;-66
2022/10/21 02:49:33;;;;;;;9.60;5.32;;;13.50;99.90;;;;;;10517061;28;20111;-65
2022/10/21 02:54:34;;;;;;;13.13;5.78;;;13.50;99.90;;;;;;10514381;28;20399;-65
2022/10/21 02:59:35;;;;;;;8.93;5.57;;;13.50;99.90;;;;;;10514613;28;20126;-66
2022/10/21 03:04:35;;;;;;;8.70;4.88;;;13.50;99.90;;;;;;10521427;28;20032;-66
2022/10/21 03:09:36;;;;;;;9.70;5.53;;;13.50;99.90;;;;;;10521301;28;20350;-65
2022/10/21 03:14:37;;;;;;;12.40;6.30;;;13.50;99.90;;;;;;10517362;28;20031;-65
2022/10/21 03:19:38;;;;;;;12.85;5.85;;;13.60;99.90;;;;;;10518890;28;20039;-66
2022/10/21 03:24:38;;;;;;;9.57;5.20;;;13.60;99.90;;;;;;10516056;28;20531;-66
2022/10/21 03:29:39;;;;;;;10.10;5.35;;;13.60;99.90;;;;;;10520218;28;20552;-66
2022/10/21 03:34:40;;;;;;;10.57;4.88;;;13.60;99.90;;;;;;10514661;28;20021;-65
2022/10/21 03:39:40;;;;;;;7.88;4.57;;;13.60;99.90;;;;;;10518821;28;20032;-65
2022/10/21 03:44:42;;;;;;;7.30;4.47;;;13.60;99.90;;;;;;10516703;28;20027;-66
2022/10/21 03:49:42;;;;;;;9.57;4.85;;;13.60;99.90;;;;;;10519394;28;20024;-66
2022/10/21 03:54:43;;;;;;;7.22;4.82;;;13.60;99.90;;;;;;10516779;28;20032;-65
2022/10/21 03:59:43;;;;;;;7.45;4.63;;;13.60;99.90;;;;;;10521751;28;20036;-66
2022/10/21 04:04:44;;;;;;;6.35;4.38;;;13.60;99.90;;;;;;10508499;28;20385;-66
2022/10/21 04:09:45;;;;;;;7.65;5.28;;;13.60;99.90;;;;;;10517727;28;20032;-66
2022/10/21 04:14:45;;;;;;;7.65;5.20;;;13.60;99.90;;;;;;10521222;28;20028;-65
2022/10/21 04:19:46;;;;;;;8.13;5.53;;;13.60;99.90;;;;;;10513962;28;20039;-66
2022/10/21 04:24:47;;;;;;;7.55;5.15;;;13.60;99.90;;;;;;10518745;28;20044;-65
2022/10/21 04:29:48;;;;;;;10.27;5.47;;;13.60;99.90;;;;;;10517681;28;20472;-65
2022/10/21 04:34:48;;;;;;;9.57;5.15;;;13.60;99.90;;;;;;10508473;28;20028;-66
2022/10/21 04:39:49;;;;;;;10.93;5.40;;;13.60;99.90;;;;;;10517871;28;20062;-66
2022/10/21 04:44:50;;;;;;;8.10;5.50;;;13.60;99.90;;;;;;10512577;28;20027;-66
2022/10/21 04:49:50;;;;;;;10.95;6.03;;;13.60;99.90;;;;;;10513822;28;20496;-66
2022/10/21 04:54:51;;;;;;;9.75;5.82;;;13.60;99.90;;;;;;10511088;28;20036;-65
2022/10/21 04:59:52;;;;;;;8.85;6.00;;;13.60;99.90;;;;;;10515327;28;20486;-65
2022/10/21 05:04:52;;;;;;;8.93;5.50;;;13.60;99.90;;;;;;10519193;28;20035;-66
2022/10/21 05:09:53;;;;;;;9.18;5.25;;;13.60;99.90;;;;;;10513316;28;20024;-66
2022/10/21 05:14:54;;;;;;;8.40;5.22;;;13.60;99.90;;;;;;10515535;28;20074;-65
2022/10/21 05:19:54;;;;;;;8.82;5.65;;;13.60;99.90;;;;;;10512088;28;20039;-66
2022/10/21 05:24:55;;;;;;;9.45;5.55;;;13.60;99.90;;;;;;10516840;28;20044;-66
2022/10/21 05:29:57;;;;;;;8.63;5.38;;;13.60;99.90;;;;;;10514215;28;20027;-66
2022/10/21 05:34:57;;;;;;;8.60;5.20;;;13.60;99.90;;;;;;10517885;28;20040;-65
2022/10/21 05:39:58;;;;;;;8.88;5.53;;;13.60;99.90;;;;;;10524217;28;20067;-66
2022/10/21 05:44:59;;;;;;;10.32;5.35;;;13.60;99.90;;;;;;10518342;28;20182;-66
2022/10/21 05:50:00;;;;;;;9.88;5.43;;;13.60;99.90;;;;;;10522704;28;20036;-66
2022/10/21 05:55:01;;;;;;;10.55;5.88;;;13.60;99.90;;;;;;10523118;28;20055;-66
2022/10/21 06:00:03;;;;;;;11.23;5.40;;;13.60;99.90;;;;;;10509387;28;20066;-66
2022/10/21 06:05:04;;;;;;;10.70;5.78;;;13.60;99.90;;;;;;10512090;28;20032;-66
2022/10/21 06:10:06;;;;;;;9.77;5.53;;;13.70;99.90;;;;;;10503914;28;20070;-65
2022/10/21 06:15:07;;;;;;;12.20;6.10;;;13.70;99.90;;;;;;10521524;28;20024;-65
2022/10/21 06:20:08;;;;;;;10.40;6.15;;;13.70;99.90;;;;;;10517033;28;20258;-66
2022/10/21 06:25:09;;;;;;;9.75;5.40;;;13.70;99.90;;;;;;10517822;28;20036;-66
2022/10/21 06:30:10;;;;;;;11.82;6.43;;;13.70;99.90;;;;;;10518511;28;20146;-66
2022/10/21 06:35:11;;;;;;;11.35;5.78;;;13.70;99.90;;;;;;10518089;28;20310;-65
2022/10/21 06:40:12;;;;;;;11.25;6.00;;;13.70;99.90;;;;;;10454422;28;20139;-65
2022/10/21 06:45:12;;;;;;;9.90;5.70;;;13.70;99.90;;;;;;10443651;28;20040;-63
2022/10/21 06:50:13;;;;;;;12.85;5.72;;;13.70;99.90;;;;;;10432899;28;20387;-65
2022/10/21 06:55:14;;;;;;;14.25;5.80;;;13.70;99.90;;;;;;10437996;28;20108;-65
2022/10/21 07:00:15;;;;;;;10.73;6.15;;;13.70;99.90;;;;;;10442940;28;20605;-65
2022/10/21 07:05:16;;;;;;;10.10;5.35;;;13.70;99.90;;;;;;10444930;28;20063;-65
2022/10/21 07:10:17;;;;;;;8.90;5.32;;;13.90;99.90;;;;;;10436131;28;20028;-65
2022/10/21 07:15:18;;;;;;;9.82;5.32;;;13.70;99.90;;;;;;10439854;28;21094;-65
2022/10/21 07:20:19;;;;;;;9.57;5.05;;;13.70;99.90;;;;;;10435922;28;20464;-64
2022/10/21 07:25:19;;;;;;;10.57;5.57;;;13.70;99.90;;;;;;10430740;28;20795;-65
2022/10/21 07:30:22;;;;;;;8.30;5.18;;;13.70;99.90;;;;;;10425836;22;20653;-65
2022/10/21 07:35:23;;;;;;;9.23;5.53;;;13.70;99.90;;;;;;10355102;28;20083;-65
2022/10/21 07:40:23;;;;;;;6.97;4.70;;;13.80;99.90;;;;;;10353703;28;20029;-65
2022/10/21 07:45:24;;;;;;;9.57;5.80;;;13.80;99.90;;;;;;10337377;28;20039;-65
2022/10/21 07:50:25;;;;;;;8.00;4.50;;;13.80;99.90;;;;;;10346769;28;20445;-65
2022/10/21 07:55:25;;;;;;;9.85;5.03;;;13.80;99.90;;;;;;10382858;22;20052;-66
2022/10/21 08:00:26;;;;;;;10.18;5.80;;;13.80;99.90;;;;;;10479611;22;20590;-65
2022/10/21 08:05:27;;;;;;;10.32;5.20;;;13.90;99.90;;;;;;10451207;28;20039;-66
2022/10/21 08:10:28;;;;;;;9.32;4.90;;;13.90;99.90;;;;;;10425526;28;20024;-66
2022/10/21 08:15:28;;;;;;;8.40;4.35;;;14.00;99.90;;;;;;10452546;28;20044;-66
2022/10/21 08:20:29;;;;;;;7.25;4.60;;;14.00;99.90;;;;;;10457619;22;20053;-67
2022/10/21 08:25:30;;;;;;;7.28;4.85;;;14.10;99.90;;;;;;10381022;28;20131;-66
2022/10/21 08:30:31;;;;;;;9.60;4.80;;;14.10;99.90;;;;;;10375154;28;20296;-65
2022/10/21 08:35:32;;;;;;;7.68;4.85;;;14.20;99.90;;;;;;10387435;28;20045;-67
2022/10/21 08:40:44;;;;;;;8.02;4.97;;;14.20;99.90;;;;;;10380638;28;20534;-66
2022/10/21 08:45:50;;;;;;;9.30;5.00;;;14.30;99.90;;;;;;10428186;22;20470;-66
2022/10/21 08:50:55;;;;;;;8.45;4.78;;;14.30;99.90;;;;;;10390179;28;20025;-65
2022/10/21 08:56:04;;;;;;;7.43;4.57;;;14.30;99.90;;;;;;10380653;28;20032;-67
2022/10/21 09:01:14;;;;;;;9.48;4.85;;;14.40;99.90;;;;;;10445606;22;20075;-65
2022/10/21 09:06:50;;;;;;;7.63;4.68;;;14.40;99.90;;;;;;10460481;28;20745;-65
2022/10/21 09:12:22;;;;;;;10.75;5.10;;;14.40;99.90;;;;;;10438781;28;20171;-65
2022/10/21 09:17:38;;;;;;;9.20;4.60;;;14.50;99.90;;;;;;10447422;28;20601;-65
2022/10/21 09:22:41;;;;;;;8.05;5.10;;;14.50;99.90;;;;;;10453402;28;20533;-66
2022/10/21 09:27:42;;;;;;;9.35;4.88;;;14.50;99.90;;;;;;10453239;28;20675;-65
2022/10/21 09:32:49;;;;;;;9.27;4.80;;;14.60;99.90;;;;;;10456386;28;20094;-65
2022/10/21 09:38:15;;;;;;;7.72;4.05;;;14.60;99.90;;;;;;10453515;28;20146;-65
2022/10/21 09:43:19;;;;;;;8.65;4.57;;;14.60;99.90;;;;;;10469788;28;20036;-65
2022/10/21 09:48:34;;;;;;;6.93;4.65;;;14.60;99.90;;;;;;10459967;28;20040;-66
2022/10/21 09:53:49;;;;;;;7.97;4.30;;;14.60;99.90;;;;;;10475482;28;20031;-65
2022/10/21 09:59:02;;;;;;;7.80;4.70;;;14.70;99.90;;;;;;10458753;28;20074;-65
2022/10/21 10:04:30;;;;;;;9.65;5.15;;;14.70;99.90;;;;;;10455792;28;20048;-66
2022/10/21 10:09:33;;;;;;;6.73;4.07;;;14.70;99.90;;;;;;10448532;28;20664;-66
2022/10/21 10:14:37;;;;;;;8.25;4.07;;;14.70;99.90;;;;;;10460055;28;20024;-65
2022/10/21 10:19:38;;;;;;;7.05;4.05;;;14.70;99.90;;;;;;10455798;28;20092;-66
2022/10/21 10:24:43;;;;;;;8.77;4.45;;;14.70;99.90;;;;;;10468797;28;20043;-66
2022/10/21 10:29:52;;;;;;;8.65;4.10;;;14.70;99.90;;;;;;10460431;28;20443;-65
2022/10/21 10:34:56;;;;;;;5.50;3.92;;;14.80;99.90;;;;;;10466251;28;20843;-65
2022/10/21 10:39:58;;;;;;;6.97;4.05;;;14.80;99.90;;;;;;10459371;28;20039;-65
2022/10/21 10:45:11;;;;;;;7.80;4.15;;;14.80;99.90;;;;;;10447434;28;20346;-65
2022/10/21 10:50:45;;;;;;;9.05;4.30;;;14.90;99.90;;;;;;10467911;28;20035;-67
2022/10/21 10:56:08;;;;;;;7.47;4.35;;;14.80;99.90;;;;;;10464230;28;20272;-66
2022/10/21 11:01:16;;;;;;;6.72;3.90;;;14.90;99.90;;;;;;10466544;28;20043;-65
2022/10/21 11:06:25;;;;;;;8.48;4.25;;;14.90;99.90;;;;;;10464946;28;20130;-65
2022/10/21 11:11:35;;;;;;;9.77;4.07;;;14.90;99.90;;;;;;10456982;28;20027;-67
2022/10/21 11:16:42;;;;;;;5.90;3.78;;;15.00;99.90;;;;;;10452420;28;20473;-66
2022/10/21 11:21:53;;;;;;;8.45;4.43;;;15.00;99.90;;;;;;10459812;28;20132;-65
2022/10/21 11:26:59;;;;;;;7.85;3.95;;;15.00;99.90;;;;;;10456347;28;20109;-66
2022/10/21 11:32:20;;;;;;;6.38;3.92;;;15.00;99.90;;;;;;10462719;28;20023;-66
2022/10/21 11:37:35;;;;;;;8.10;4.20;;;15.00;99.90;;;;;;10456946;28;20586;-65
2022/10/21 11:42:48;;;;;;;7.55;3.30;;;15.00;99.90;;;;;;10463189;28;20092;-65
2022/10/21 11:47:54;;;;;;;6.53;3.85;;;15.10;99.90;;;;;;10471257;28;20673;-65
2022/10/21 11:53:20;;;;;;;8.38;3.65;;;15.10;99.90;;;;;;10453727;28;20016;-65
2022/10/21 11:58:59;;;;;;;8.27;3.78;;;15.10;99.90;;;;;;10464256;28;20037;-67
2022/10/21 12:04:11;;;;;;;;;;;15.10;99.90;;;;;;10386848;28;20483;-66
2022/10/21 12:09:17;;;;;;;6.45;3.28;;;15.10;99.90;;;;;;10428061;28;20380;-65
2022/10/21 12:14:35;;;;;;;6.22;3.33;;;15.10;99.90;;;;;;10460345;28;20112;-65
2022/10/21 12:19:36;;;;;;;7.15;4.03;;;15.10;99.90;;;;;;10452707;28;20031;-66
2022/10/21 12:24:48;;;;;;;8.02;3.80;;;15.20;99.90;;;;;;10449644;28;20024;-65
2022/10/21 12:29:52;;;;;;;5.78;3.63;;;15.20;99.90;;;;;;10452480;28;21009;-65
2022/10/21 12:34:53;;;;;;;6.72;3.40;;;15.20;99.90;;;;;;10456483;28;20463;-65
2022/10/21 12:40:13;;;;;;;7.30;4.10;;;15.60;99.90;;;;;;10458123;28;20559;-66
2022/10/21 12:45:32;;;;;;;5.72;3.40;;;15.20;99.90;;;;;;10454054;28;20543;-66
2022/10/21 12:50:34;;;;;;;8.43;3.67;;;15.30;99.90;;;;;;10467067;28;20157;-66
2022/10/21 12:55:39;;;;;;;7.57;3.85;;;15.30;99.90;;;;;;10463429;28;20024;-65
2022/10/21 13:00:43;;;;;;;6.07;4.03;;;15.40;99.90;;;;;;10421475;28;20047;-65
2022/10/21 13:06:01;;;;;;;7.40;3.60;;;15.40;99.90;;;;;;10426455;28;20084;-65
2022/10/21 13:11:12;;;;;;;8.48;3.28;;;15.50;99.90;;;;;;10423269;28;20031;-65
2022/10/21 13:16:18;;;;;;;5.40;3.30;;;15.50;99.90;;;;;;10413257;28;20046;-65
2022/10/21 13:21:24;;;;;;;7.95;3.72;;;15.60;99.90;;;;;;10413415;28;20032;-66
2022/10/21 13:26:27;;;;;;;5.22;3.30;;;15.70;99.90;;;;;;10427972;28;20033;-66
2022/10/21 13:31:28;;;;;;;5.45;2.95;;;15.70;99.90;;;;;;10427190;28;20219;-66
2022/10/21 13:36:42;;;;;;;8.48;3.85;;;15.80;99.90;;;;;;10422666;28;20231;-65
2022/10/21 13:41:42;;;;;;;4.93;3.22;;;15.70;99.90;;;;;;10422470;28;20376;-65
2022/10/21 13:46:43;;;;;;;8.23;3.58;;;15.70;99.90;;;;;;10422256;28;20147;-65
2022/10/21 13:51:45;;;;;;;6.07;2.83;;;15.70;99.90;;;;;;10421543;28;20131;-65
2022/10/21 13:56:47;;;;;;;7.88;3.17;;;15.80;99.90;;;;;;10415939;28;20094;-65
2022/10/21 14:01:53;;;;;;;4.68;2.92;;;15.70;99.90;;;;;;10443638;28;20427;-65
2022/10/21 14:07:02;;;;;;;4.40;2.63;;;15.80;99.90;;;;;;10459214;28;21011;-66
2022/10/21 14:12:06;;;;;;;5.78;2.70;;;15.80;99.90;;;;;;10457185;28;20027;-66
2022/10/21 14:17:14;;;;;;;6.10;3.20;;;15.80;99.90;;;;;;10468984;28;20027;-65
2022/10/21 14:22:22;;;;;;;6.28;3.00;;;15.80;99.90;;;;;;10460922;28;20012;-65
2022/10/21 14:27:32;;;;;;;5.05;2.63;;;15.80;99.90;;;;;;10463487;28;20044;-64
2022/10/21 14:32:33;;;;;;;5.75;2.88;;;15.80;99.90;;;;;;10467534;28;20130;-66
2022/10/21 14:37:53;;;;;;;4.22;2.47;;;15.80;99.90;;;;;;10462897;28;20848;-65
2022/10/21 14:42:54;;;;;;;4.90;2.47;;;15.90;99.90;;;;;;10453269;28;20067;-65
2022/10/21 14:48:22;;;;;;;6.45;3.05;;;15.80;99.90;;;;;;10454980;28;20039;-65
2022/10/21 14:53:23;;;;;;;8.90;2.67;;;15.80;99.90;;;;;;10456825;28;20538;-65
2022/10/21 14:58:31;;;;;;;5.10;2.75;;;15.90;99.90;;;;;;10460751;28;20116;-65
2022/10/21 15:03:35;;;;;;;4.33;2.53;;;15.90;99.90;;;;;;10467571;28;20048;-65
2022/10/21 15:08:44;;;;;;;4.47;2.63;;;15.80;99.90;;;;;;10456639;28;20910;-65
2022/10/21 15:14:03;;;;;;;3.40;2.13;;;15.80;99.90;;;;;;10464357;28;20419;-65
2022/10/21 15:19:11;;;;;;;4.53;2.50;;;15.80;99.90;;;;;;10463024;28;20043;-65
2022/10/21 15:24:35;;;;;;;5.60;2.65;;;15.80;99.90;;;;;;10465822;28;20478;-67
2022/10/21 15:29:42;;;;;;;7.65;2.97;;;15.80;99.90;;;;;;10455996;28;20369;-65
2022/10/21 15:34:43;;;;;;;5.43;2.40;;;15.80;99.90;;;;;;10463420;28;20815;-66
2022/10/21 15:39:44;;;;;;;6.43;2.20;;;15.80;99.90;;;;;;10454534;28;20482;-65
2022/10/21 15:44:49;;;;;;;6.32;2.85;;;15.80;99.90;;;;;;10461767;28;20109;-67
2022/10/21 15:49:50;;;;;;;4.75;2.85;;;15.80;99.90;;;;;;10469620;28;20047;-66
2022/10/21 15:54:52;;;;;;;5.03;2.45;;;15.80;99.90;;;;;;10460650;28;20908;-65
2022/10/21 15:59:53;;;;;;;4.18;2.75;;;15.80;99.90;;;;;;10461293;28;20667;-65
2022/10/21 16:04:54;;;;;;;4.68;2.55;;;15.80;99.90;;;;;;10458875;28;20032;-65
2022/10/21 16:09:55;;;;;;;6.85;3.05;;;15.80;99.90;;;;;;10457406;28;20473;-65
2022/10/21 16:14:56;;;;;;;5.72;2.70;;;15.80;99.90;;;;;;10468629;28;20546;-65
2022/10/21 16:19:58;;;;;;;5.75;2.72;;;15.70;99.90;;;;;;10451560;28;20036;-65
2022/10/21 16:24:59;;;;;;;4.03;2.50;;;15.70;99.90;;;;;;10464289;28;21243;-65
2022/10/21 16:29:59;;;;;;;5.78;2.38;;;15.70;99.90;;;;;;10461297;28;20036;-65
2022/10/21 16:35:00;;;;;;;5.75;2.53;;;15.70;99.90;;;;;;10456564;28;20028;-65
2022/10/21 16:40:01;;;;;;;5.75;2.83;;;15.70;99.90;;;;;;10460745;28;20064;-65
2022/10/21 16:45:02;;;;;;;7.57;2.88;;;15.60;99.90;;;;;;10462337;28;20563;-65
2022/10/21 16:50:04;;;;;;;5.72;2.65;;;15.60;99.90;;;;;;10448339;28;20944;-64
2022/10/21 16:55:05;;;;;;;6.60;2.53;;;15.60;99.90;;;;;;10466099;28;20027;-65
2022/10/21 17:00:07;;;;;;;4.82;2.72;;;15.60;99.90;;;;;;10526785;28;20194;-65
2022/10/21 17:05:10;;;;;;;6.15;2.83;;;15.60;99.90;;;;;;10527675;28;20028;-66
2022/10/21 17:10:11;;;;;;;6.25;2.28;;;15.50;99.90;;;;;;10521966;28;20522;-67
2022/10/21 17:15:14;;;;;;;4.20;2.58;;;15.50;99.90;;;;;;10523212;28;20036;-66
2022/10/21 17:20:15;;;;;;;3.97;2.40;;;15.50;99.90;;;;;;10513194;28;20105;-66
2022/10/21 17:25:16;;;;;;;5.47;2.75;;;15.50;99.90;;;;;;10524057;28;20028;-66
2022/10/21 17:30:17;;;;;;;3.50;2.00;;;15.40;99.90;;;;;;10505516;28;20572;-66
2022/10/21 17:35:18;;;;;;;3.88;2.17;;;15.40;99.90;;;;;;10533316;28;20047;-66
2022/10/21 17:40:24;;;;;;;4.32;2.40;;;15.40;99.90;;;;;;10539438;28;20035;-66
2022/10/21 17:45:25;;;;;;;3.05;2.20;;;15.40;99.90;;;;;;10535216;28;20066;-66
2022/10/21 17:50:26;;;;;;;4.07;2.33;;;15.30;99.90;;;;;;10542125;28;20111;-65
2022/10/21 17:55:27;;;;;;;3.95;2.90;;;15.40;99.90;;;;;;10539203;28;20032;-66
2022/10/21 18:00:27;;;;;;;5.35;2.67;;;15.30;99.90;;;;;;10532421;28;20140;-65
2022/10/21 18:05:28;;;;;;;3.22;2.15;;;15.30;99.90;;;;;;10534656;28;20487;-65
2022/10/21 18:10:29;;;;;;;5.97;2.67;;;15.30;99.90;;;;;;10534386;28;20031;-66
2022/10/21 18:15:30;;;;;;;2.58;2.10;;;15.30;99.90;;;;;;10535788;28;20027;-66
2022/10/21 18:20:35;;;;;;;5.15;2.28;;;15.30;99.90;;;;;;10532976;28;20049;-66
2022/10/21 18:25:37;;;;;;;4.57;2.40;;;15.20;99.90;;;;;;10529381;28;20090;-65
2022/10/21 18:30:42;;;;;;;4.93;2.40;;;15.20;99.90;;;;;;10536980;28;21495;-66
2022/10/21 18:35:43;;;;;;;5.35;2.50;;;15.20;99.90;;;;;;10527983;28;20505;-66
2022/10/21 18:40:44;;;;;;;3.78;2.20;;;15.20;99.90;;;;;;10537284;28;20036;-66
2022/10/21 18:45:45;;;;;;;3.53;2.35;;;15.10;99.90;;;;;;10534241;28;20028;-66
2022/10/21 18:50:45;;;;;;;4.07;2.53;;;15.10;99.90;;;;;;10532992;28;20024;-66
2022/10/21 18:55:46;;;;;;;6.97;2.60;;;15.10;99.90;;;;;;10533870;28;20297;-66
2022/10/21 19:00:47;;;;;;;3.53;2.45;;;15.10;99.90;;;;;;10537369;28;20060;-66
2022/10/21 19:05:48;;;;;;;5.22;2.42;;;15.10;99.90;;;;;;10517051;28;20035;-66
2022/10/21 19:10:48;;;;;;;3.28;2.28;;;15.10;99.90;;;;;;10531968;28;20059;-66
2022/10/21 19:15:49;;;;;;;3.20;2.30;;;15.10;99.90;;;;;;10527396;28;20042;-66
2022/10/21 19:20:50;;;;;;;3.60;2.42;;;15.10;99.90;;;;;;10530744;28;20433;-66
2022/10/21 19:25:50;;;;;;;2.83;2.20;;;15.10;99.90;;;;;;10533927;28;20370;-66
2022/10/21 19:30:51;;;;;;;3.60;2.17;;;15.00;99.90;;;;;;10529555;28;20036;-66
2022/10/21 19:35:52;;;;;;;3.63;2.17;;;15.00;99.90;;;;;;10510929;28;20031;-66
2022/10/21 19:40:53;;;;;;;3.75;2.10;;;15.00;99.90;;;;;;10530289;28;20499;-66
2022/10/21 19:45:54;;;;;;;4.07;2.10;;;15.00;99.90;;;;;;10529762;28;20039;-66
2022/10/21 19:50:56;;;;;;;5.05;2.28;;;15.00;99.90;;;;;;10525485;27;20034;-66
2022/10/21 19:56:01;;;;;;;2.92;2.20;;;15.00;99.90;;;;;;10536726;28;20056;-66
2022/10/21 20:01:10;;;;;;;4.18;2.40;;;15.00;99.90;;;;;;10527561;28;20086;-66
2022/10/21 20:06:14;;;;;;;2.65;1.95;;;15.00;99.90;;;;;;10523802;28;20032;-66
2022/10/21 20:11:17;;;;;;;3.85;2.47;;;15.00;99.90;;;;;;10521449;28;20430;-65
2022/10/21 20:16:25;;;;;;;2.90;2.10;;;15.00;99.90;;;;;;10526366;28;20724;-66
2022/10/21 20:21:26;;;;;;;3.38;2.20;;;14.90;99.90;;;;;;10539629;28;20019;-66
2022/10/21 20:26:27;;;;;;;3.17;2.30;;;14.90;99.90;;;;;;10528193;28;20434;-67
2022/10/21 20:31:28;;;;;;;3.38;2.30;;;14.90;99.90;;;;;;10536694;28;20145;-65
2022/10/21 20:36:33;;;;;;;3.42;2.10;;;14.90;99.90;;;;;;10531057;28;20038;-66
2022/10/21 20:41:36;;;;;;;3.30;2.25;;;14.90;99.90;;;;;;10525904;28;20133;-65
2022/10/21 20:46:36;;;;;;;4.53;2.60;;;14.90;99.90;;;;;;10526576;28;20028;-65
2022/10/21 20:51:41;;;;;;;3.10;2.40;;;14.90;99.90;;;;;;10524510;28;20472;-66
2022/10/21 20:56:42;;;;;;;3.20;2.13;;;14.90;99.90;;;;;;10537087;28;20032;-66
2022/10/21 21:01:45;;;;;;;3.50;2.10;;;14.90;99.90;;;;;;10536679;28;20059;-65
2022/10/21 21:06:48;;;;;;;2.88;2.13;;;14.90;99.90;;;;;;10522083;28;20024;-66
2022/10/21 21:11:49;;;;;;;4.53;2.38;;;14.90;99.90;;;;;;10521023;28;20012;-66
2022/10/21 21:16:49;;;;;;;4.05;2.17;;;14.80;99.90;;;;;;10529847;28;20063;-66
2022/10/21 21:21:50;;;;;;;3.78;2.33;;;14.90;99.90;;;;;;10528279;28;20119;-65
2022/10/21 21:26:51;;;;;;;4.70;2.40;;;14.90;99.90;;;;;;10522650;28;20035;-65
2022/10/21 21:31:52;;;;;;;3.45;2.38;;;14.90;99.90;;;;;;10498424;28;20416;-65
2022/10/21 21:36:52;;;;;;;2.45;1.77;;;14.90;99.90;;;;;;10518105;28;20045;-65
2022/10/21 21:41:53;;;;;;;4.50;2.38;;;14.90;99.90;;;;;;10523863;28;20539;-66
2022/10/21 21:46:54;;;;;;;4.43;2.25;;;14.80;99.90;;;;;;10537915;28;20031;-66
2022/10/21 21:51:54;;;;;;;4.03;2.10;;;14.80;99.90;;;;;;10537096;28;20015;-66
2022/10/21 21:56:57;;;;;;;2.45;1.98;;;14.80;99.90;;;;;;10536560;28;20160;-66
2022/10/21 22:01:58;;;;;;;5.78;2.08;;;14.80;99.90;;;;;;10527456;28;20123;-66
2022/10/21 22:06:58;;;;;;;3.20;2.17;;;14.80;99.90;;;;;;10539902;28;20023;-66
2022/10/21 22:11:59;;;;;;;2.80;2.03;;;14.80;99.90;;;;;;10533972;28;20101;-66
2022/10/21 22:17:00;;;;;;;3.72;2.20;;;14.80;99.90;;;;;;10544439;28;20027;-67
2022/10/21 22:22:00;;;;;;;3.15;1.90;;;14.80;99.90;;;;;;10541645;28;20020;-66
2022/10/21 22:27:01;;;;;;;2.85;1.77;;;14.80;99.90;;;;;;10541071;28;20021;-66
2022/10/21 22:32:02;;;;;;;3.08;2.00;;;14.80;99.90;;;;;;10544029;28;20076;-66
2022/10/21 22:37:03;;;;;;;2.65;1.92;;;14.80;99.90;;;;;;10537986;28;20170;-66
2022/10/21 22:42:04;;;;;;;2.42;2.00;;;14.80;99.90;;;;;;10547025;28;20024;-66
2022/10/21 22:47:06;;;;;;;2.78;1.80;;;14.80;99.90;;;;;;10542073;28;20039;-65
2022/10/21 22:52:06;;;;;;;2.42;1.77;;;14.80;99.90;;;;;;10551419;28;20025;-66
2022/10/21 22:57:07;;;;;;;2.33;1.75;;;14.80;99.90;;;;;;10552700;28;20404;-66
2022/10/21 23:02:08;;;;;;;2.83;1.88;;;14.70;99.90;;;;;;10551274;28;20124;-66
2022/10/21 23:07:08;;;;;;;2.30;1.60;;;14.70;99.90;;;;;;10543256;28;20118;-66
2022/10/21 23:12:09;;;;;;;2.33;1.83;;;14.70;99.90;;;;;;10546119;28;20019;-66
2022/10/21 23:17:09;;;;;;;2.58;1.73;;;14.70;99.90;;;;;;10549206;28;20074;-67
2022/10/21 23:22:11;;;;;;;2.65;1.80;;;14.70;99.90;;;;;;10537042;28;20024;-66
2022/10/21 23:27:12;;;;;;;3.65;1.83;;;14.70;99.90;;;;;;10547561;28;20035;-66
2022/10/21 23:32:13;;;;;;;3.42;1.83;;;14.70;99.90;;;;;;10548636;28;20024;-66
2022/10/21 23:37:14;;;;;;;2.10;1.60;;;14.70;99.90;;;;;;10544156;28;20040;-66
2022/10/21 23:42:15;;;;;;;3.50;1.90;;;14.70;99.90;;;;;;10546288;28;20544;-67
2022/10/21 23:47:15;;;;;;;2.13;1.70;;;14.70;99.90;;;;;;10545864;28;20056;-67
2022/10/21 23:52:16;;;;;;;2.92;1.77;;;14.60;99.90;;;;;;10543197;28;20317;-66
2022/10/21 23:57:17;;;;;;;3.67;1.80;;;14.60;99.90;;;;;;10553703;28;20031;-66
